Time;durP1;ratioP1;P1;durP2;ratioP2;P2;SDS_P1;SDS_P2;PMS_P1;PMS_P2;Temp;Humidity;BMP_temperature;BMP_pressure;BME280_temperature;BME280_humidity;BME280_pressure;Samples;Min_cycle;Max_cycle;Signal;HPM_P1;HPM_P2
2021/07/26 00:00:00;;;;;;;5.65;5.13;;;17.80;99.90;;;;;;5051951;28;20032;-64
2021/07/26 00:02:26;;;;;;;5.55;5.00;;;17.70;99.90;;;;;;5054197;28;20066;-63
2021/07/26 00:04:52;;;;;;;9.43;5.72;;;17.70;99.90;;;;;;5052019;28;20405;-64
2021/07/26 00:07:17;;;;;;;11.10;5.90;;;17.70;99.90;;;;;;5053284;28;20028;-64
2021/07/26 00:09:43;;;;;;;7.55;5.38;;;17.60;99.90;;;;;;5040403;28;20040;-66
2021/07/26 00:12:09;;;;;;;6.05;5.45;;;17.60;99.90;;;;;;5033383;28;20463;-64
2021/07/26 00:14:35;;;;;;;7.45;5.03;;;17.60;99.90;;;;;;5033216;28;20029;-64
2021/07/26 00:17:01;;;;;;;5.88;5.30;;;17.60;99.90;;;;;;5032334;28;20025;-64
2021/07/26 00:19:26;;;;;;;5.63;5.13;;;17.50;99.90;;;;;;5032818;28;20387;-64
2021/07/26 00:21:52;;;;;;;9.45;5.57;;;17.50;99.90;;;;;;5032137;28;20036;-64
2021/07/26 00:24:18;;;;;;;7.43;5.80;;;17.40;99.90;;;;;;5032940;28;20494;-64
2021/07/26 00:26:44;;;;;;;8.65;6.18;;;17.40;99.90;;;;;;5032511;28;20103;-66
2021/07/26 00:29:10;;;;;;;7.22;6.35;;;17.40;99.90;;;;;;5033103;28;20041;-64
2021/07/26 00:31:36;;;;;;;8.27;5.55;;;17.40;99.90;;;;;;5033156;28;20434;-64
2021/07/26 00:34:25;;;;;;;6.28;5.68;;;17.30;99.90;;;;;;5043266;28;20036;-64
2021/07/26 00:36:52;;;;;;;6.90;5.32;;;17.30;99.90;;;;;;5052177;28;20024;-63
2021/07/26 00:39:23;;;;;;;7.25;5.40;;;17.30;99.90;;;;;;5052085;28;20056;-63
2021/07/26 00:41:49;;;;;;;5.32;4.82;;;17.30;99.90;;;;;;5052054;28;20033;-63
2021/07/26 00:44:16;;;;;;;8.23;5.68;;;17.30;99.90;;;;;;5052766;28;20378;-63
2021/07/26 00:46:44;;;;;;;5.82;5.13;;;17.30;99.90;;;;;;5052782;28;20118;-66
2021/07/26 00:49:11;;;;;;;9.98;5.95;;;17.30;99.90;;;;;;5051541;28;20020;-65
2021/07/26 00:51:45;;;;;;;6.63;5.65;;;17.30;99.90;;;;;;5052144;28;20036;-64
2021/07/26 00:54:12;;;;;;;14.05;6.13;;;17.30;99.90;;;;;;5052303;28;20032;-64
2021/07/26 00:56:38;;;;;;;7.20;5.70;;;17.30;99.90;;;;;;5052330;28;20017;-64
2021/07/26 00:59:05;;;;;;;8.18;5.85;;;17.30;99.90;;;;;;5051623;28;20025;-64
2021/07/26 01:01:31;;;;;;;6.05;5.50;;;17.30;99.90;;;;;;5051469;28;20017;-64
2021/07/26 01:03:56;;;;;;;5.47;4.95;;;17.30;99.90;;;;;;5051872;28;20071;-64
2021/07/26 01:06:22;;;;;;;7.60;5.78;;;17.20;99.90;;;;;;5052154;28;20029;-64
2021/07/26 01:08:48;;;;;;;6.80;5.93;;;17.20;99.90;;;;;;5046595;28;20079;-64
2021/07/26 01:11:14;;;;;;;9.90;6.55;;;17.20;99.90;;;;;;5037861;28;20029;-64
2021/07/26 01:13:40;;;;;;;7.90;6.22;;;17.20;99.90;;;;;;5052222;28;20047;-63
2021/07/26 01:16:06;;;;;;;8.85;6.28;;;17.20;99.90;;;;;;5049682;28;20940;-63
2021/07/26 01:18:33;;;;;;;6.97;6.22;;;17.20;99.90;;;;;;5052092;28;20033;-63
2021/07/26 01:21:05;;;;;;;8.55;5.38;;;17.10;99.90;;;;;;5051249;28;20068;-63
2021/07/26 01:23:34;;;;;;;7.93;6.00;;;17.20;99.90;;;;;;5050883;28;20385;-64
2021/07/26 01:26:00;;;;;;;6.30;5.70;;;17.20;99.90;;;;;;5050450;28;20079;-63
2021/07/26 01:28:29;;;;;;;7.70;5.68;;;17.20;99.90;;;;;;5051982;28;20036;-63
2021/07/26 01:30:56;;;;;;;6.95;5.55;;;17.20;99.90;;;;;;5050892;28;20486;-63
2021/07/26 01:33:22;;;;;;;8.05;6.53;;;17.20;99.90;;;;;;5050614;28;20542;-65
2021/07/26 01:35:48;;;;;;;6.47;5.82;;;17.20;99.90;;;;;;5051056;28;20092;-65
2021/07/26 01:38:14;;;;;;;6.57;5.93;;;17.30;99.90;;;;;;5051603;28;20052;-63
2021/07/26 01:40:41;;;;;;;8.43;5.75;;;17.30;99.90;;;;;;5051557;28;20033;-63
2021/07/26 01:43:09;;;;;;;6.20;5.45;;;17.30;99.90;;;;;;5050984;28;20078;-63
2021/07/26 01:45:38;;;;;;;6.00;5.30;;;17.30;99.90;;;;;;5051711;28;20025;-63
2021/07/26 01:48:11;;;;;;;7.97;6.22;;;17.30;99.90;;;;;;5050994;28;20043;-64
2021/07/26 01:50:46;;;;;;;6.32;5.38;;;17.30;99.90;;;;;;5051632;28;20029;-64
2021/07/26 01:53:13;;;;;;;7.13;5.22;;;17.30;99.90;;;;;;5051022;28;20116;-64
2021/07/26 01:55:39;;;;;;;8.90;5.47;;;17.30;99.90;;;;;;5051401;28;20029;-64
2021/07/26 01:58:04;;;;;;;7.90;5.75;;;17.30;99.90;;;;;;5050960;28;20097;-64
2021/07/26 02:00:30;;;;;;;11.23;6.55;;;17.30;99.90;;;;;;5051442;28;20041;-63
2021/07/26 02:02:56;;;;;;;7.20;6.07;;;17.30;99.90;;;;;;5050609;28;20051;-64
2021/07/26 02:05:21;;;;;;;8.70;5.70;;;17.20;99.90;;;;;;5051157;28;20029;-64
2021/07/26 02:07:47;;;;;;;10.45;6.63;;;17.30;99.90;;;;;;5050635;28;20017;-65
2021/07/26 02:10:13;;;;;;;9.02;5.88;;;17.20;99.90;;;;;;5034944;28;20061;-63
2021/07/26 02:12:38;;;;;;;12.02;5.85;;;17.30;99.90;;;;;;5031096;28;20104;-63
2021/07/26 02:15:05;;;;;;;7.15;5.95;;;17.30;99.90;;;;;;5029810;28;20022;-64
2021/07/26 02:17:30;;;;;;;7.70;5.28;;;17.30;99.90;;;;;;5030063;28;20069;-64
2021/07/26 02:19:56;;;;;;;6.82;5.65;;;17.30;99.90;;;;;;5029213;28;20454;-63
2021/07/26 02:22:22;;;;;;;7.53;5.70;;;17.20;99.90;;;;;;5030153;28;20096;-63
2021/07/26 02:24:47;;;;;;;7.28;5.38;;;17.20;99.90;;;;;;5032130;28;20024;-65
2021/07/26 02:27:13;;;;;;;5.72;5.18;;;17.10;99.90;;;;;;5029429;28;20056;-63
2021/07/26 02:29:39;;;;;;;7.90;6.45;;;17.10;99.90;;;;;;5029862;28;20041;-63
2021/07/26 02:32:05;;;;;;;8.32;5.75;;;17.10;99.90;;;;;;5029314;28;20025;-63
2021/07/26 02:34:31;;;;;;;11.02;5.85;;;17.00;99.90;;;;;;5028781;28;20040;-64
2021/07/26 02:36:56;;;;;;;7.32;5.85;;;17.00;99.90;;;;;;5029310;28;20034;-64
2021/07/26 02:39:22;;;;;;;7.50;6.30;;;17.00;99.90;;;;;;5033610;28;20049;-63
2021/07/26 02:41:48;;;;;;;6.95;6.00;;;17.00;99.90;;;;;;5033659;28;20040;-65
2021/07/26 02:44:13;;;;;;;6.93;6.10;;;17.00;99.90;;;;;;5034857;28;20033;-63
2021/07/26 02:46:39;;;;;;;8.05;5.47;;;17.00;99.90;;;;;;5034998;28;20021;-63
2021/07/26 02:49:04;;;;;;;7.82;6.15;;;17.00;99.90;;;;;;5033953;28;20029;-63
2021/07/26 02:51:30;;;;;;;6.25;5.65;;;17.00;99.90;;;;;;5034957;28;20485;-63
2021/07/26 02:53:56;;;;;;;8.68;6.07;;;17.00;99.90;;;;;;5045657;28;20025;-63
2021/07/26 02:56:22;;;;;;;5.82;5.32;;;16.90;99.90;;;;;;5054697;28;20044;-63
2021/07/26 02:58:47;;;;;;;7.05;6.03;;;16.90;99.90;;;;;;5054187;28;20032;-65
2021/07/26 03:01:13;;;;;;;7.78;6.13;;;16.90;99.90;;;;;;5053014;28;20025;-63
2021/07/26 03:03:39;;;;;;;7.28;6.18;;;16.90;99.90;;;;;;5054368;28;20090;-64
2021/07/26 03:06:13;;;;;;;6.97;6.28;;;16.80;99.90;;;;;;5053913;28;20035;-63
2021/07/26 03:08:39;;;;;;;7.28;6.22;;;16.80;99.90;;;;;;5051053;28;20029;-64
2021/07/26 03:11:08;;;;;;;6.78;5.85;;;16.90;99.90;;;;;;5033870;28;20025;-64
2021/07/26 03:13:34;;;;;;;7.03;6.32;;;16.90;99.90;;;;;;5041284;28;20036;-64
2021/07/26 03:16:11;;;;;;;7.55;6.10;;;16.80;99.90;;;;;;5053974;28;20041;-64
2021/07/26 03:18:37;;;;;;;7.93;6.35;;;16.80;99.90;;;;;;5054370;28;20048;-63
2021/07/26 03:21:03;;;;;;;9.10;6.10;;;16.90;99.90;;;;;;5053487;28;20029;-63
2021/07/26 03:23:29;;;;;;;9.52;7.03;;;16.90;99.90;;;;;;5053769;28;20477;-64
2021/07/26 03:25:55;;;;;;;7.20;6.40;;;16.90;99.90;;;;;;5053505;28;20033;-63
2021/07/26 03:28:21;;;;;;;6.65;5.90;;;16.90;99.90;;;;;;5054272;28;20024;-63
2021/07/26 03:30:46;;;;;;;8.32;6.00;;;16.90;99.90;;;;;;5053858;28;20210;-64
2021/07/26 03:33:12;;;;;;;8.52;6.22;;;16.90;99.90;;;;;;5053063;28;20040;-64
2021/07/26 03:35:38;;;;;;;6.68;5.85;;;16.90;99.90;;;;;;5052561;28;20120;-64
2021/07/26 03:38:05;;;;;;;7.18;6.18;;;16.90;99.90;;;;;;5052460;28;20053;-64
2021/07/26 03:40:32;;;;;;;7.00;6.30;;;16.90;99.90;;;;;;5053840;28;20446;-64
2021/07/26 03:42:58;;;;;;;7.03;6.07;;;16.90;99.90;;;;;;5050693;28;20029;-64
2021/07/26 03:45:24;;;;;;;9.60;6.60;;;16.90;99.90;;;;;;5052569;28;20040;-63
2021/07/26 03:47:50;;;;;;;7.40;6.10;;;16.90;99.90;;;;;;5052905;28;20029;-66
2021/07/26 03:50:18;;;;;;;7.68;6.38;;;16.90;99.90;;;;;;5053324;28;20033;-64
2021/07/26 03:52:51;;;;;;;10.23;6.47;;;17.00;99.90;;;;;;5053135;28;20455;-64
2021/07/26 03:55:21;;;;;;;7.13;5.30;;;17.00;99.90;;;;;;5053047;28;20032;-63
2021/07/26 03:57:51;;;;;;;9.18;5.57;;;17.00;99.90;;;;;;5053128;28;20429;-64
2021/07/26 04:00:18;;;;;;;6.45;5.30;;;17.10;99.90;;;;;;5052823;28;20479;-64
2021/07/26 04:02:48;;;;;;;7.32;5.55;;;17.10;99.90;;;;;;5053286;28;20025;-64
2021/07/26 04:05:23;;;;;;;6.07;5.20;;;17.20;99.90;;;;;;5052682;28;20052;-64
2021/07/26 04:07:50;;;;;;;7.38;5.13;;;17.20;99.90;;;;;;5052956;28;20041;-65
2021/07/26 04:10:16;;;;;;;6.45;5.20;;;17.20;99.90;;;;;;5036569;28;20072;-64
2021/07/26 04:12:45;;;;;;;5.88;5.28;;;17.30;99.90;;;;;;5033047;28;20128;-63
2021/07/26 04:15:11;;;;;;;6.75;4.90;;;17.30;99.90;;;;;;5032355;28;20024;-63
2021/07/26 04:17:37;;;;;;;7.88;5.00;;;17.30;99.90;;;;;;5033115;28;20029;-63
2021/07/26 04:20:07;;;;;;;6.28;4.95;;;17.30;99.90;;;;;;5032325;28;20071;-63
2021/07/26 04:22:33;;;;;;;7.18;5.00;;;17.30;99.90;;;;;;5037074;28;20143;-63
2021/07/26 04:24:59;;;;;;;7.55;5.18;;;17.30;99.90;;;;;;5052232;28;20037;-63
2021/07/26 04:27:26;;;;;;;8.35;5.53;;;17.30;99.90;;;;;;5053325;28;20051;-63
2021/07/26 04:29:53;;;;;;;7.53;5.13;;;17.30;99.90;;;;;;5051979;28;20477;-65
2021/07/26 04:32:18;;;;;;;7.95;5.50;;;17.40;99.90;;;;;;5052986;28;20056;-63
2021/07/26 04:34:44;;;;;;;7.05;4.40;;;17.40;99.90;;;;;;5052881;28;20458;-63
2021/07/26 04:37:09;;;;;;;8.75;5.13;;;17.40;99.90;;;;;;5051963;28;20036;-63
2021/07/26 04:39:35;;;;;;;8.32;5.50;;;17.50;99.90;;;;;;5052677;28;20041;-63
2021/07/26 04:42:01;;;;;;;9.57;5.50;;;17.60;99.90;;;;;;5052016;28;20033;-63
2021/07/26 04:44:26;;;;;;;7.70;4.88;;;17.60;99.90;;;;;;5052330;28;20040;-63
2021/07/26 04:46:52;;;;;;;5.85;4.95;;;17.60;99.90;;;;;;5051962;28;20025;-65
2021/07/26 04:49:20;;;;;;;9.80;5.20;;;17.60;99.90;;;;;;5052077;28;20112;-62
2021/07/26 04:51:45;;;;;;;7.68;5.00;;;17.60;99.90;;;;;;5052712;28;20466;-63
2021/07/26 04:54:11;;;;;;;6.80;4.80;;;17.60;99.90;;;;;;5050964;28;20114;-63
2021/07/26 04:56:37;;;;;;;5.80;4.38;;;17.70;99.90;;;;;;5052495;28;20033;-62
2021/07/26 04:59:02;;;;;;;7.88;5.57;;;17.70;99.90;;;;;;5051716;28;20037;-63
2021/07/26 05:01:28;;;;;;;6.38;4.90;;;17.70;99.90;;;;;;5051372;28;20031;-62
2021/07/26 05:03:54;;;;;;;7.15;5.55;;;17.80;99.90;;;;;;5051768;28;20541;-65
2021/07/26 05:06:19;;;;;;;6.40;5.63;;;17.80;99.90;;;;;;5052449;28;20028;-63
2021/07/26 05:08:45;;;;;;;7.20;5.60;;;17.90;99.90;;;;;;5047949;28;20029;-63
2021/07/26 05:11:11;;;;;;;7.47;4.97;;;17.90;99.90;;;;;;5030825;28;20044;-63
2021/07/26 05:13:37;;;;;;;7.38;5.35;;;17.80;99.90;;;;;;5032128;28;20391;-63
2021/07/26 05:16:02;;;;;;;7.57;5.03;;;17.80;99.90;;;;;;5031110;28;20398;-63
2021/07/26 05:18:28;;;;;;;5.10;4.40;;;17.70;99.90;;;;;;5031261;28;20467;-63
2021/07/26 05:20:54;;;;;;;6.45;5.18;;;17.70;99.90;;;;;;5030661;28;20450;-65
2021/07/26 05:23:19;;;;;;;5.70;5.15;;;17.70;99.90;;;;;;5030504;28;20512;-63
2021/07/26 05:25:46;;;;;;;7.50;5.10;;;17.70;99.90;;;;;;5043553;28;20029;-63
2021/07/26 05:28:12;;;;;;;9.40;5.50;;;17.70;99.90;;;;;;5042783;28;20071;-63
2021/07/26 05:30:39;;;;;;;6.90;4.97;;;17.70;99.90;;;;;;5030967;28;20041;-63
2021/07/26 05:33:04;;;;;;;14.75;5.05;;;17.70;99.90;;;;;;5031136;28;20059;-63
2021/07/26 05:35:31;;;;;;;10.15;5.57;;;17.80;99.90;;;;;;5031828;28;20382;-63
2021/07/26 05:37:56;;;;;;;6.90;4.95;;;17.80;99.90;;;;;;5030604;28;20057;-64
2021/07/26 05:40:22;;;;;;;8.38;5.20;;;17.90;99.90;;;;;;5031458;28;20030;-63
2021/07/26 05:42:48;;;;;;;6.93;5.90;;;17.90;99.90;;;;;;5028522;28;20445;-63
2021/07/26 05:45:14;;;;;;;6.85;5.60;;;18.00;99.90;;;;;;5028094;28;20091;-64
2021/07/26 05:47:39;;;;;;;7.50;5.40;;;18.10;99.90;;;;;;5045565;28;20474;-63
2021/07/26 05:50:06;;;;;;;8.38;5.32;;;18.10;99.90;;;;;;5031061;28;20053;-64
2021/07/26 05:52:32;;;;;;;8.63;5.47;;;18.10;99.90;;;;;;5030409;28;20108;-63
2021/07/26 05:54:58;;;;;;;6.32;4.82;;;18.20;99.90;;;;;;5030846;28;20067;-64
2021/07/26 05:57:25;;;;;;;6.60;4.82;;;18.30;99.90;;;;;;5031994;28;20030;-64
2021/07/26 05:59:55;;;;;;;7.63;5.15;;;18.50;99.90;;;;;;5031490;28;20463;-65
2021/07/26 06:02:21;;;;;;;6.63;5.45;;;18.60;99.90;;;;;;5031406;28;20103;-66
2021/07/26 06:04:46;;;;;;;6.05;4.97;;;18.80;99.90;;;;;;5031584;28;20164;-63
2021/07/26 06:07:12;;;;;;;6.85;5.10;;;19.00;99.90;;;;;;5030496;28;20022;-64
2021/07/26 06:09:38;;;;;;;7.75;5.50;;;19.10;99.90;;;;;;5031502;28;20034;-63
2021/07/26 06:12:03;;;;;;;8.88;5.85;;;19.30;99.90;;;;;;5032241;28;20021;-69
2021/07/26 06:14:29;;;;;;;6.97;4.82;;;19.50;99.90;;;;;;5035623;28;20109;-68
2021/07/26 06:16:55;;;;;;;7.95;5.28;;;19.60;99.90;;;;;;5034693;28;20025;-65
2021/07/26 06:19:21;;;;;;;6.10;5.00;;;19.70;99.90;;;;;;5035192;28;20037;-64
2021/07/26 06:21:50;;;;;;;5.72;5.13;;;19.80;99.90;;;;;;5035512;28;20048;-67
2021/07/26 06:24:17;;;;;;;7.00;4.82;;;19.90;99.90;;;;;;5030402;28;20049;-67
2021/07/26 06:26:43;;;;;;;6.32;3.90;;;20.10;99.90;;;;;;5035465;28;20026;-67
2021/07/26 06:29:09;;;;;;;7.70;4.10;;;20.20;99.90;;;;;;5035872;28;20037;-66
2021/07/26 06:31:35;;;;;;;7.80;4.47;;;20.30;99.90;;;;;;5035369;28;20068;-70
2021/07/26 06:34:02;;;;;;;5.93;3.90;;;20.40;99.90;;;;;;5033929;28;20486;-70
2021/07/26 06:36:29;;;;;;;7.32;4.05;;;20.40;99.90;;;;;;5034563;28;20029;-70
2021/07/26 06:38:55;;;;;;;6.47;4.25;;;20.40;99.90;;;;;;5034258;28;20482;-69
2021/07/26 06:41:21;;;;;;;6.68;3.78;;;20.40;99.90;;;;;;5034169;28;20127;-69
2021/07/26 06:43:47;;;;;;;9.43;4.47;;;20.50;99.90;;;;;;5034927;28;20053;-70
2021/07/26 06:46:14;;;;;;;5.53;4.07;;;20.60;99.90;;;;;;5033974;28;20061;-69
2021/07/26 06:48:39;;;;;;;8.23;3.67;;;20.70;99.90;;;;;;5034842;28;20029;-70
2021/07/26 06:51:05;;;;;;;5.18;3.72;;;20.90;99.90;;;;;;5033648;28;20079;-69
2021/07/26 06:53:34;;;;;;;6.30;4.07;;;21.00;99.90;;;;;;5035454;28;20044;-69
2021/07/26 06:56:07;;;;;;;6.00;4.05;;;21.10;99.90;;;;;;5053729;28;20402;-69
2021/07/26 06:58:37;;;;;;;4.25;3.72;;;21.10;99.90;;;;;;5050880;28;20060;-70
2021/07/26 07:01:09;;;;;;;7.10;4.03;;;21.10;99.90;;;;;;5033431;28;20037;-69
2021/07/26 07:03:35;;;;;;;5.85;3.90;;;21.10;99.90;;;;;;5034558;28;20033;-70
2021/07/26 07:06:07;;;;;;;5.75;3.80;;;21.20;99.90;;;;;;5028694;28;20029;-69
2021/07/26 07:08:33;;;;;;;5.45;3.55;;;21.30;99.90;;;;;;5034602;28;20048;-70
2021/07/26 07:11:13;;;;;;;5.90;3.60;;;21.40;99.90;;;;;;5032742;28;20494;-69
2021/07/26 07:13:44;;;;;;;4.30;3.60;;;21.60;99.90;;;;;;5034341;28;20060;-70
2021/07/26 07:16:17;;;;;;;4.53;3.35;;;21.70;99.90;;;;;;5033503;28;20040;-70
2021/07/26 07:18:43;;;;;;;4.15;3.42;;;21.80;99.90;;;;;;5034475;28;20116;-70
2021/07/26 07:21:17;;;;;;;2.95;2.70;;;21.90;98.90;;;;;;5033406;28;20065;-69
2021/07/26 07:23:42;;;;;;;6.78;3.45;;;22.00;98.80;;;;;;5027545;28;20372;-65
2021/07/26 07:26:08;;;;;;;6.20;3.45;;;22.00;98.60;;;;;;5027877;28;20116;-65
2021/07/26 07:28:34;;;;;;;3.70;3.03;;;22.20;98.50;;;;;;5033203;28;20482;-65
2021/07/26 07:30:59;;;;;;;6.00;3.28;;;22.20;97.50;;;;;;5033307;28;20088;-66
2021/07/26 07:33:25;;;;;;;3.88;3.30;;;22.30;96.90;;;;;;5032968;28;20072;-66
2021/07/26 07:35:51;;;;;;;6.20;3.85;;;22.50;97.40;;;;;;5033223;28;20041;-65
2021/07/26 07:38:17;;;;;;;6.75;3.78;;;22.60;98.10;;;;;;5044830;28;20042;-65
2021/07/26 07:40:43;;;;;;;10.02;4.63;;;22.60;98.20;;;;;;5033298;28;20037;-65
2021/07/26 07:43:08;;;;;;;6.07;3.88;;;22.80;98.50;;;;;;5032539;28;20094;-65
2021/07/26 07:45:34;;;;;;;6.47;3.28;;;22.90;97.50;;;;;;5032722;28;20041;-65
2021/07/26 07:48:01;;;;;;;8.27;3.72;;;23.10;97.20;;;;;;5032692;28;20037;-67
2021/07/26 07:50:27;;;;;;;9.63;3.63;;;23.20;96.00;;;;;;5033539;28;20034;-65
2021/07/26 07:52:53;;;;;;;6.53;3.42;;;23.30;95.90;;;;;;5032660;28;20060;-65
2021/07/26 07:55:19;;;;;;;6.40;3.60;;;23.50;94.90;;;;;;5033774;28;20034;-65
2021/07/26 07:57:48;;;;;;;3.53;3.08;;;23.50;94.60;;;;;;5033521;28;20379;-66
2021/07/26 08:00:16;;;;;;;4.20;3.28;;;23.50;95.00;;;;;;5032832;28;20071;-65
2021/07/26 08:02:41;;;;;;;4.25;2.90;;;23.60;94.10;;;;;;5033041;28;20099;-65
2021/07/26 08:05:08;;;;;;;4.05;3.30;;;23.80;92.90;;;;;;5032825;28;20026;-65
2021/07/26 08:07:34;;;;;;;4.88;3.65;;;23.90;93.70;;;;;;5032822;28;20091;-65
2021/07/26 08:10:00;;;;;;;5.97;3.10;;;24.10;92.20;;;;;;5032715;28;20045;-66
2021/07/26 08:12:25;;;;;;;7.45;3.40;;;24.20;91.70;;;;;;5031901;28;20026;-65
2021/07/26 08:14:51;;;;;;;4.95;3.42;;;24.20;91.20;;;;;;5032992;28;20039;-65
2021/07/26 08:17:17;;;;;;;5.25;3.40;;;24.20;91.40;;;;;;5031577;28;20849;-65
2021/07/26 08:19:42;;;;;;;4.20;3.50;;;24.10;91.60;;;;;;5032688;28;20526;-66
2021/07/26 08:22:08;;;;;;;3.90;3.25;;;24.10;91.10;;;;;;5032462;28;20057;-66
2021/07/26 08:24:34;;;;;;;3.63;3.22;;;24.10;91.90;;;;;;5037358;28;20032;-65
2021/07/26 08:26:59;;;;;;;5.85;3.30;;;24.20;91.00;;;;;;5032003;28;20100;-67
2021/07/26 08:29:25;;;;;;;6.35;3.03;;;24.20;90.30;;;;;;5032117;28;20432;-65
2021/07/26 08:31:50;;;;;;;9.40;3.55;;;24.40;90.40;;;;;;5032776;28;20431;-65
2021/07/26 08:34:16;;;;;;;3.88;3.30;;;24.60;90.20;;;;;;5031860;28;20036;-65
2021/07/26 08:36:41;;;;;;;5.45;3.30;;;24.70;88.90;;;;;;5032361;28;20052;-65
2021/07/26 08:39:09;;;;;;;5.38;3.20;;;24.90;85.80;;;;;;5031277;28;20049;-65
2021/07/26 08:41:35;;;;;;;3.85;3.10;;;25.00;84.50;;;;;;5036900;28;20041;-65
2021/07/26 08:44:00;;;;;;;5.03;2.83;;;25.10;83.40;;;;;;5052308;28;20025;-67
2021/07/26 08:46:30;;;;;;;3.60;2.97;;;25.20;82.50;;;;;;5052303;28;20025;-65
2021/07/26 08:48:56;;;;;;;;;;;25.30;81.80;;;;;;5048191;28;20463;-65
2021/07/26 08:51:24;;;;;;;5.43;3.55;;;25.40;82.40;;;;;;5031539;28;19920;-65
2021/07/26 08:53:51;;;;;;;4.47;3.03;;;25.50;81.60;;;;;;5033055;28;20382;-65
2021/07/26 08:56:17;;;;;;;5.40;3.15;;;25.60;81.30;;;;;;5031308;28;20032;-65
2021/07/26 08:58:43;;;;;;;3.83;3.40;;;25.70;81.30;;;;;;5032451;28;20036;-65
2021/07/26 09:01:15;;;;;;;3.90;3.05;;;25.80;81.20;;;;;;5031060;28;20045;-65
2021/07/26 09:03:41;;;;;;;7.28;3.17;;;25.80;78.70;;;;;;5031944;28;20037;-65
2021/07/26 09:06:08;;;;;;;3.65;2.78;;;25.80;76.50;;;;;;5031748;28;20068;-65
2021/07/26 09:08:35;;;;;;;8.77;2.95;;;25.70;76.00;;;;;;5031789;28;20025;-65
2021/07/26 09:11:03;;;;;;;3.22;3.00;;;25.70;76.90;;;;;;5031953;28;20120;-66
2021/07/26 09:13:47;;;;;;;5.25;3.08;;;25.70;75.80;;;;;;5032163;28;20426;-65
2021/07/26 09:16:17;;;;;;;4.60;2.92;;;25.50;76.20;;;;;;5031409;28;20053;-65
2021/07/26 09:18:47;;;;;;;;;;;25.30;76.80;;;;;;5032696;28;20022;-64
2021/07/26 09:21:12;;;;;;;4.80;3.67;;;25.20;77.00;;;;;;5030759;28;19917;-65
2021/07/26 09:24:02;;;;;;;4.90;3.10;;;25.20;77.20;;;;;;5032877;28;20042;-64
2021/07/26 09:26:28;;;;;;;3.17;2.88;;;25.10;77.40;;;;;;5043572;28;20430;-64
2021/07/26 09:28:54;;;;;;;3.28;2.65;;;25.10;76.80;;;;;;5031598;28;20116;-65
2021/07/26 09:31:19;;;;;;;3.63;2.60;;;25.00;75.00;;;;;;5030604;28;20095;-65
2021/07/26 09:33:45;;;;;;;5.47;2.95;;;25.00;76.60;;;;;;5031210;28;20415;-64
2021/07/26 09:36:20;;;;;;;4.68;3.00;;;25.00;76.40;;;;;;5031012;28;20348;-64
2021/07/26 09:38:48;;;;;;;4.32;2.55;;;25.10;76.30;;;;;;5031085;28;20041;-65
2021/07/26 09:41:17;;;;;;;6.78;2.90;;;25.10;75.50;;;;;;5030811;28;20479;-64
2021/07/26 09:43:43;;;;;;;3.15;2.83;;;25.10;75.70;;;;;;5031157;28;20037;-64
2021/07/26 09:46:24;;;;;;;3.50;2.35;;;25.10;76.00;;;;;;5036966;28;20025;-64
2021/07/26 09:49:09;;;;;;;5.85;3.08;;;25.20;74.30;;;;;;5033488;28;20029;-64
2021/07/26 09:51:35;;;;;;;3.13;2.83;;;25.40;73.60;;;;;;5031422;28;20029;-64
2021/07/26 09:54:01;;;;;;;5.40;2.75;;;25.60;74.00;;;;;;5032115;28;20053;-65
2021/07/26 09:56:30;;;;;;;4.57;3.03;;;25.50;75.20;;;;;;5030807;28;20099;-64
2021/07/26 09:58:55;;;;;;;5.85;3.13;;;25.40;75.80;;;;;;5030846;28;20041;-64
2021/07/26 10:01:23;;;;;;;4.18;3.13;;;25.30;76.30;;;;;;5030421;28;20742;-64
2021/07/26 10:03:51;;;;;;;8.00;3.42;;;25.10;76.30;;;;;;5031202;28;20030;-64
2021/07/26 10:06:18;;;;;;;11.13;3.25;;;25.10;77.10;;;;;;5030432;28;20061;-64
2021/07/26 10:08:46;;;;;;;4.38;2.97;;;25.00;77.70;;;;;;5030685;28;20029;-64
2021/07/26 10:11:14;;;;;;;5.93;2.95;;;25.30;76.70;;;;;;5030421;28;20061;-64
2021/07/26 10:13:41;;;;;;;2.88;2.50;;;25.60;73.60;;;;;;5031399;28;20378;-64
2021/07/26 10:16:12;;;;;;;6.18;2.85;;;25.80;70.70;;;;;;5029929;28;20053;-65
2021/07/26 10:18:40;;;;;;;4.93;2.63;;;26.10;70.20;;;;;;5030871;28;20406;-64
2021/07/26 10:21:08;;;;;;;2.60;2.40;;;26.40;69.10;;;;;;5030394;28;20044;-66
2021/07/26 10:23:42;;;;;;;3.78;2.72;;;26.60;67.30;;;;;;5031707;28;20113;-64
2021/07/26 10:26:13;;;;;;;4.45;2.95;;;27.00;67.00;;;;;;5030751;28;20037;-64
2021/07/26 10:28:51;;;;;;;7.18;3.05;;;27.40;68.60;;;;;;5031268;28;20018;-64
2021/07/26 10:31:32;;;;;;;6.78;2.80;;;27.60;67.50;;;;;;5030335;28;20029;-64
2021/07/26 10:34:03;;;;;;;3.25;2.67;;;27.60;65.80;;;;;;5030587;28;20390;-64
2021/07/26 10:36:43;;;;;;;3.22;2.90;;;27.70;66.80;;;;;;5030078;28;20037;-65
2021/07/26 10:39:10;;;;;;;5.10;3.17;;;27.90;68.10;;;;;;5029917;28;20054;-69
2021/07/26 10:41:45;;;;;;;5.05;2.75;;;28.20;66.30;;;;;;5031250;28;20523;-70
2021/07/26 10:44:16;;;;;;;5.43;3.63;;;28.30;65.20;;;;;;5030139;28;20109;-70
2021/07/26 10:46:55;;;;;;;4.20;2.83;;;28.50;65.00;;;;;;5031348;28;20034;-70
2021/07/26 10:49:51;;;;;;;3.88;3.05;;;28.50;64.50;;;;;;5030114;28;20112;-70
2021/07/26 10:52:22;;;;;;;5.75;2.78;;;28.60;63.60;;;;;;5043633;28;20040;-70
2021/07/26 10:54:49;;;;;;;6.85;3.17;;;28.60;65.00;;;;;;5043541;28;20521;-67
2021/07/26 10:57:35;;;;;;;3.72;2.95;;;28.90;65.00;;;;;;5030182;28;20033;-66
2021/07/26 11:00:09;;;;;;;7.55;3.28;;;29.30;63.90;;;;;;5033249;28;20026;-67
2021/07/26 11:02:36;;;;;;;5.07;2.88;;;29.30;61.70;;;;;;5035616;28;20029;-68
2021/07/26 11:05:27;;;;;;;3.78;2.70;;;29.20;62.00;;;;;;5034414;28;20025;-69
2021/07/26 11:08:14;;;;;;;2.97;2.63;;;29.30;62.10;;;;;;5034031;28;20425;-66
2021/07/26 11:10:44;;;;;;;6.97;2.50;;;29.10;61.70;;;;;;5034347;28;20047;-67
2021/07/26 11:13:09;;;;;;;3.85;2.80;;;28.90;62.80;;;;;;5033769;28;20029;-67
2021/07/26 11:15:52;;;;;;;5.13;2.95;;;28.80;62.40;;;;;;5033886;28;20160;-67
2021/07/26 11:18:18;;;;;;;5.60;3.10;;;28.60;61.80;;;;;;5033047;28;20079;-66
2021/07/26 11:20:58;;;;;;;4.05;2.60;;;28.50;62.90;;;;;;5033914;28;20485;-66
2021/07/26 11:23:42;;;;;;;7.05;2.88;;;28.40;62.90;;;;;;5032550;28;20048;-66
2021/07/26 11:26:20;;;;;;;4.40;2.92;;;28.60;62.40;;;;;;5027394;28;20108;-68
2021/07/26 11:28:47;;;;;;;3.05;2.70;;;28.90;61.70;;;;;;5028455;28;20057;-66
2021/07/26 11:31:24;;;;;;;13.43;3.10;;;29.20;61.00;;;;;;5033334;28;20383;-66
2021/07/26 11:33:51;;;;;;;5.38;2.97;;;29.50;61.60;;;;;;5033331;28;20536;-68
2021/07/26 11:36:17;;;;;;;3.40;2.60;;;29.90;60.40;;;;;;5032888;28;20387;-67
2021/07/26 11:39:07;;;;;;;4.82;2.50;;;30.30;57.30;;;;;;5033602;28;20061;-67
2021/07/26 11:41:32;;;;;;;;;;;30.30;57.00;;;;;;5033868;28;20394;-67
2021/07/26 11:43:58;;;;;;;3.90;2.55;;;30.10;56.60;;;;;;5033610;28;19909;-67
2021/07/26 11:46:26;;;;;;;5.68;2.90;;;29.90;57.70;;;;;;5032651;28;20044;-67
2021/07/26 11:48:59;;;;;;;8.95;3.17;;;29.70;59.40;;;;;;5033941;28;20021;-68
2021/07/26 11:51:27;;;;;;;7.32;2.80;;;29.40;59.70;;;;;;5032063;28;20235;-66
2021/07/26 11:54:02;;;;;;;7.57;3.10;;;29.20;60.10;;;;;;5035590;28;20025;-65
2021/07/26 11:56:31;;;;;;;5.55;3.40;;;28.90;61.30;;;;;;5035274;28;20600;-66
2021/07/26 11:59:16;;;;;;;5.60;2.83;;;28.60;60.80;;;;;;5043355;28;20079;-66
2021/07/26 12:01:55;;;;;;;5.15;2.72;;;28.20;61.70;;;;;;5025093;28;20478;-67
2021/07/26 12:04:24;;;;;;;3.80;2.80;;;27.80;62.90;;;;;;5032544;28;21233;-67
2021/07/26 12:06:54;;;;;;;2.83;2.53;;;27.50;63.00;;;;;;5032870;28;20327;-67
2021/07/26 12:09:21;;;;;;;5.28;3.15;;;27.10;63.20;;;;;;5024975;28;20517;-66
2021/07/26 12:11:46;;;;;;;4.93;3.08;;;26.80;65.40;;;;;;5032630;28;20037;-66
2021/07/26 12:14:26;;;;;;;8.82;2.75;;;26.50;67.10;;;;;;5032099;28;20025;-67
2021/07/26 12:17:04;;;;;;;5.20;3.20;;;26.00;69.40;;;;;;5015898;28;20041;-67
2021/07/26 12:19:31;;;;;;;5.10;3.25;;;25.60;70.70;;;;;;5032195;28;20074;-67
2021/07/26 12:22:18;;;;;;;3.30;2.83;;;25.30;73.00;;;;;;5032772;28;20037;-66
2021/07/26 12:24:59;;;;;;;6.30;3.15;;;25.00;75.20;;;;;;5043436;28;20530;-66
2021/07/26 12:27:33;;;;;;;5.53;3.20;;;24.70;76.40;;;;;;5049294;28;20021;-66
2021/07/26 12:30:10;;;;;;;4.90;3.00;;;24.60;78.50;;;;;;5032661;28;20115;-65
2021/07/26 12:32:51;;;;;;;4.97;3.20;;;24.60;77.70;;;;;;5032945;28;20074;-66
2021/07/26 12:35:17;;;;;;;3.35;3.05;;;24.50;78.90;;;;;;5031936;28;20029;-66
2021/07/26 12:38:13;;;;;;;4.55;3.38;;;24.50;78.10;;;;;;5032521;28;20094;-66
2021/07/26 12:40:41;;;;;;;6.07;2.90;;;24.40;79.00;;;;;;5032299;28;20065;-66
2021/07/26 12:43:07;;;;;;;3.92;2.80;;;24.40;79.20;;;;;;5032444;28;20022;-68
2021/07/26 12:45:33;;;;;;;5.85;2.90;;;24.40;79.60;;;;;;5031591;28;20109;-66
2021/07/26 12:48:13;;;;;;;4.63;3.38;;;24.40;80.20;;;;;;5032038;28;20037;-66
2021/07/26 12:50:43;;;;;;;6.15;2.97;;;24.40;80.50;;;;;;5032520;28;20059;-66
2021/07/26 12:53:10;;;;;;;;;;;24.40;79.50;;;;;;5032683;28;20038;-68